sensor_id;sensor_type;location;lat;lon;timestamp;P1;P2;P0
56360;PMS7003;42611;51.132;13.588;2023-04-08T00:03:02;34.8;29.9;
56360;PMS7003;42611;51.132;13.588;2023-04-08T00:08:01;34.5;29.2;
56360;PMS7003;42611;51.132;13.588;2023-04-08T00:13:02;34.9;29.7;
56360;PMS7003;42611;51.132;13.588;2023-04-08T00:18:01;35.2;30.7;
56360;PMS7003;42611;51.132;13.588;2023-04-08T00:23:07;34.7;31.1;
56360;PMS7003;42611;51.132;13.588;2023-04-08T00:28:01;35.1;31.3;
56360;PMS7003;42611;51.132;13.588;2023-04-08T00:33:01;34.1;31.1;
56360;PMS7003;42611;51.132;13.588;2023-04-08T00:38:02;33.6;30.4;
56360;PMS7003;42611;51.132;13.588;2023-04-08T00:43:07;34.7;30.7;
56360;PMS7003;42611;51.132;13.588;2023-04-08T00:48:06;34.0;30.3;
56360;PMS7003;42611;51.132;13.588;2023-04-08T00:53:06;33.1;29.4;
56360;PMS7003;42611;51.132;13.588;2023-04-08T00:58:01;32.4;29.0;
56360;PMS7003;42611;51.132;13.588;2023-04-08T01:03:11;31.2;28.2;
56360;PMS7003;42611;51.132;13.588;2023-04-08T01:08:06;29.4;26.7;
56360;PMS7003;42611;51.132;13.588;2023-04-08T01:13:05;28.8;25.3;
56360;PMS7003;42611;51.132;13.588;2023-04-08T01:18:07;27.6;24.7;
56360;PMS7003;42611;51.132;13.588;2023-04-08T01:23:05;27.1;24.0;
56360;PMS7003;42611;51.132;13.588;2023-04-08T01:28:08;24.3;21.4;
56360;PMS7003;42611;51.132;13.588;2023-04-08T01:33:06;23.3;20.8;
56360;PMS7003;42611;51.132;13.588;2023-04-08T01:38:08;22.6;19.8;
56360;PMS7003;42611;51.132;13.588;2023-04-08T01:43:07;22.1;18.8;
56360;PMS7003;42611;51.132;13.588;2023-04-08T01:53:01;20.5;16.7;
56360;PMS7003;42611;51.132;13.588;2023-04-08T01:58:01;19.1;15.4;
56360;PMS7003;42611;51.132;13.588;2023-04-08T02:04:09;18.8;15.8;
56360;PMS7003;42611;51.132;13.588;2023-04-08T02:09:07;17.4;14.9;
56360;PMS7003;42611;51.132;13.588;2023-04-08T02:14:07;17.2;15.4;
56360;PMS7003;42611;51.132;13.588;2023-04-08T02:19:10;18.7;16.6;
56360;PMS7003;42611;51.132;13.588;2023-04-08T02:24:06;19.2;17.7;
56360;PMS7003;42611;51.132;13.588;2023-04-08T02:29:09;17.8;16.4;
56360;PMS7003;42611;51.132;13.588;2023-04-08T02:34:07;19.0;17.5;
56360;PMS7003;42611;51.132;13.588;2023-04-08T02:39:06;18.4;16.7;
56360;PMS7003;42611;51.132;13.588;2023-04-08T02:44:06;18.3;16.6;
56360;PMS7003;42611;51.132;13.588;2023-04-08T02:49:07;16.9;15.1;
56360;PMS7003;42611;51.132;13.588;2023-04-08T02:54:08;17.0;15.2;
56360;PMS7003;42611;51.132;13.588;2023-04-08T02:59:07;16.2;14.0;
56360;PMS7003;42611;51.132;13.588;2023-04-08T03:04:04;16.7;14.8;
56360;PMS7003;42611;51.132;13.588;2023-04-08T03:09:02;16.2;14.6;
56360;PMS7003;42611;51.132;13.588;2023-04-08T03:14:02;16.3;14.5;
56360;PMS7003;42611;51.132;13.588;2023-04-08T03:19:06;16.2;14.3;
56360;PMS7003;42611;51.132;13.588;2023-04-08T03:24:07;15.6;14.0;
56360;PMS7003;42611;51.132;13.588;2023-04-08T03:29:09;13.7;12.3;
56360;PMS7003;42611;51.132;13.588;2023-04-08T03:34:06;13.8;12.1;
56360;PMS7003;42611;51.132;13.588;2023-04-08T03:39:12;14.2;12.6;
56360;PMS7003;42611;51.132;13.588;2023-04-08T03:44:08;13.8;12.4;
56360;PMS7003;42611;51.132;13.588;2023-04-08T03:49:12;13.4;12.0;
56360;PMS7003;42611;51.132;13.588;2023-04-08T03:54:08;13.5;12.4;
56360;PMS7003;42611;51.132;13.588;2023-04-08T03:59:07;13.4;12.2;
56360;PMS7003;42611;51.132;13.588;2023-04-08T04:04:03;12.3;10.9;
56360;PMS7003;42611;51.132;13.588;2023-04-08T04:09:06;18.9;16.0;
56360;PMS7003;42611;51.132;13.588;2023-04-08T04:14:06;20.4;17.2;
56360;PMS7003;42611;51.132;13.588;2023-04-08T04:19:03;21.9;17.4;
56360;PMS7003;42611;51.132;13.588;2023-04-08T04:24:07;22.7;18.4;
56360;PMS7003;42611;51.132;13.588;2023-04-08T04:29:07;23.8;19.6;
56360;PMS7003;42611;51.132;13.588;2023-04-08T04:34:08;17.1;14.6;
56360;PMS7003;42611;51.132;13.588;2023-04-08T04:39:42;19.5;17.1;
56360;PMS7003;42611;51.132;13.588;2023-04-08T04:44:07;18.6;17.2;
56360;PMS7003;42611;51.132;13.588;2023-04-08T04:49:08;16.9;15.8;
56360;PMS7003;42611;51.132;13.588;2023-04-08T04:54:02;16.2;15.0;
56360;PMS7003;42611;51.132;13.588;2023-04-08T04:59:01;16.4;15.0;
56360;PMS7003;42611;51.132;13.588;2023-04-08T05:04:07;13.9;11.7;
56360;PMS7003;42611;51.132;13.588;2023-04-08T05:09:06;13.6;11.3;
56360;PMS7003;42611;51.132;13.588;2023-04-08T05:14:06;15.0;12.1;
56360;PMS7003;42611;51.132;13.588;2023-04-08T05:19:09;16.9;13.7;
56360;PMS7003;42611;51.132;13.588;2023-04-08T05:24:06;18.6;14.4;
56360;PMS7003;42611;51.132;13.588;2023-04-08T05:29:07;20.1;15.8;
56360;PMS7003;42611;51.132;13.588;2023-04-08T05:34:01;21.4;17.0;
56360;PMS7003;42611;51.132;13.588;2023-04-08T05:39:07;21.2;17.1;
56360;PMS7003;42611;51.132;13.588;2023-04-08T05:44:06;20.8;16.8;
56360;PMS7003;42611;51.132;13.588;2023-04-08T05:49:01;19.3;16.4;
56360;PMS7003;42611;51.132;13.588;2023-04-08T05:54:01;17.2;15.4;
56360;PMS7003;42611;51.132;13.588;2023-04-08T05:59:06;16.8;14.9;
56360;PMS7003;42611;51.132;13.588;2023-04-08T06:04:02;17.0;14.5;
56360;PMS7003;42611;51.132;13.588;2023-04-08T06:09:06;17.9;15.6;
56360;PMS7003;42611;51.132;13.588;2023-04-08T06:14:02;20.0;17.2;
56360;PMS7003;42611;51.132;13.588;2023-04-08T06:19:01;21.7;18.6;
56360;PMS7003;42611;51.132;13.588;2023-04-08T06:24:09;24.3;21.7;
56360;PMS7003;42611;51.132;13.588;2023-04-08T06:29:01;25.1;23.2;
56360;PMS7003;42611;51.132;13.588;2023-04-08T06:34:06;29.9;26.2;
56360;PMS7003;42611;51.132;13.588;2023-04-08T06:39:06;34.7;29.1;
56360;PMS7003;42611;51.132;13.588;2023-04-08T06:44:07;38.5;32.4;
56360;PMS7003;42611;51.132;13.588;2023-04-08T06:49:01;42.1;34.3;
56360;PMS7003;42611;51.132;13.588;2023-04-08T06:54:01;47.9;37.9;
56360;PMS7003;42611;51.132;13.588;2023-04-08T06:59:06;46.8;37.6;
56360;PMS7003;42611;51.132;13.588;2023-04-08T07:04:07;45.0;37.4;
56360;PMS7003;42611;51.132;13.588;2023-04-08T07:09:08;46.2;37.3;
56360;PMS7003;42611;51.132;13.588;2023-04-08T07:14:01;44.8;36.0;
56360;PMS7003;42611;51.132;13.588;2023-04-08T07:19:01;42.8;35.1;
56360;PMS7003;42611;51.132;13.588;2023-04-08T07:24:06;42.5;35.3;
56360;PMS7003;42611;51.132;13.588;2023-04-08T07:29:01;42.7;34.3;
56360;PMS7003;42611;51.132;13.588;2023-04-08T07:34:01;43.8;35.6;
56360;PMS7003;42611;51.132;13.588;2023-04-08T07:39:01;45.4;36.5;
56360;PMS7003;42611;51.132;13.588;2023-04-08T07:44:06;46.9;37.5;
56360;PMS7003;42611;51.132;13.588;2023-04-08T07:49:06;46.6;37.5;
56360;PMS7003;42611;51.132;13.588;2023-04-08T07:54:01;45.6;37.9;
56360;PMS7003;42611;51.132;13.588;2023-04-08T07:59:06;43.5;36.0;
56360;PMS7003;42611;51.132;13.588;2023-04-08T08:04:07;40.0;34.0;
56360;PMS7003;42611;51.132;13.588;2023-04-08T08:09:01;36.3;31.4;
56360;PMS7003;42611;51.132;13.588;2023-04-08T08:14:06;34.4;29.5;
56360;PMS7003;42611;51.132;13.588;2023-04-08T08:19:01;32.7;27.9;
56360;PMS7003;42611;51.132;13.588;2023-04-08T08:24:07;28.9;25.5;
56360;PMS7003;42611;51.132;13.588;2023-04-08T08:29:07;27.8;24.5;
56360;PMS7003;42611;51.132;13.588;2023-04-08T08:34:01;26.6;23.5;
56360;PMS7003;42611;51.132;13.588;2023-04-08T08:39:02;24.3;21.4;
56360;PMS7003;42611;51.132;13.588;2023-04-08T08:44:08;21.8;19.6;
56360;PMS7003;42611;51.132;13.588;2023-04-08T08:49:01;19.2;17.6;
56360;PMS7003;42611;51.132;13.588;2023-04-08T08:54:07;16.9;15.7;
56360;PMS7003;42611;51.132;13.588;2023-04-08T08:59:03;15.0;14.1;
56360;PMS7003;42611;51.132;13.588;2023-04-08T09:04:10;14.8;13.3;
56360;PMS7003;42611;51.132;13.588;2023-04-08T09:09:01;14.3;12.8;
56360;PMS7003;42611;51.132;13.588;2023-04-08T09:14:23;15.4;13.0;
56360;PMS7003;42611;51.132;13.588;2023-04-08T09:19:09;15.6;13.4;
56360;PMS7003;42611;51.132;13.588;2023-04-08T09:24:09;17.1;14.3;
56360;PMS7003;42611;51.132;13.588;2023-04-08T09:29:22;17.2;14.9;
56360;PMS7003;42611;51.132;13.588;2023-04-08T09:34:10;17.7;15.1;
56360;PMS7003;42611;51.132;13.588;2023-04-08T09:39:06;18.9;17.1;
56360;PMS7003;42611;51.132;13.588;2023-04-08T09:44:02;19.2;17.4;
56360;PMS7003;42611;51.132;13.588;2023-04-08T09:49:09;23.1;20.7;
56360;PMS7003;42611;51.132;13.588;2023-04-08T09:59:02;23.7;21.4;
56360;PMS7003;42611;51.132;13.588;2023-04-08T10:04:09;23.2;20.6;
56360;PMS7003;42611;51.132;13.588;2023-04-08T10:14:02;18.6;17.0;
56360;PMS7003;42611;51.132;13.588;2023-04-08T10:19:01;19.0;17.2;
56360;PMS7003;42611;51.132;13.588;2023-04-08T10:24:01;19.4;17.6;
56360;PMS7003;42611;51.132;13.588;2023-04-08T10:29:31;20.0;18.1;
56360;PMS7003;42611;51.132;13.588;2023-04-08T10:34:16;20.3;18.8;
56360;PMS7003;42611;51.132;13.588;2023-04-08T10:39:01;20.9;19.3;
56360;PMS7003;42611;51.132;13.588;2023-04-08T10:44:21;22.3;20.3;
56360;PMS7003;42611;51.132;13.588;2023-04-08T10:49:06;23.0;20.8;
56360;PMS7003;42611;51.132;13.588;2023-04-08T10:54:11;22.8;20.6;
56360;PMS7003;42611;51.132;13.588;2023-04-08T11:04:10;23.2;20.5;
56360;PMS7003;42611;51.132;13.588;2023-04-08T11:09:06;22.7;20.0;
56360;PMS7003;42611;51.132;13.588;2023-04-08T11:14:01;23.4;20.8;
56360;PMS7003;42611;51.132;13.588;2023-04-08T11:19:06;23.8;21.2;
56360;PMS7003;42611;51.132;13.588;2023-04-08T11:24:10;22.5;19.8;
56360;PMS7003;42611;51.132;13.588;2023-04-08T11:29:01;23.4;20.6;
56360;PMS7003;42611;51.132;13.588;2023-04-08T11:34:02;23.0;21.0;
56360;PMS7003;42611;51.132;13.588;2023-04-08T11:39:11;22.5;20.7;
56360;PMS7003;42611;51.132;13.588;2023-04-08T11:44:01;22.6;21.0;
56360;PMS7003;42611;51.132;13.588;2023-04-08T11:49:07;26.0;24.4;
56360;PMS7003;42611;51.132;13.588;2023-04-08T11:54:08;26.8;25.4;
56360;PMS7003;42611;51.132;13.588;2023-04-08T11:59:02;29.2;27.2;
56360;PMS7003;42611;51.132;13.588;2023-04-08T12:04:07;29.4;27.3;
56360;PMS7003;42611;51.132;13.588;2023-04-08T12:09:07;32.8;29.6;
56360;PMS7003;42611;51.132;13.588;2023-04-08T12:14:01;34.4;30.2;
56360;PMS7003;42611;51.132;13.588;2023-04-08T12:19:06;35.6;30.7;
56360;PMS7003;42611;51.132;13.588;2023-04-08T12:24:06;34.9;30.5;
56360;PMS7003;42611;51.132;13.588;2023-04-08T12:29:01;37.3;31.9;
56360;PMS7003;42611;51.132;13.588;2023-04-08T12:34:11;36.6;31.2;
56360;PMS7003;42611;51.132;13.588;2023-04-08T12:39:01;36.9;31.2;
56360;PMS7003;42611;51.132;13.588;2023-04-08T12:44:03;38.1;31.8;
56360;PMS7003;42611;51.132;13.588;2023-04-08T12:49:07;39.0;32.2;
56360;PMS7003;42611;51.132;13.588;2023-04-08T12:54:07;38.2;31.8;
56360;PMS7003;42611;51.132;13.588;2023-04-08T12:59:06;38.5;32.3;
56360;PMS7003;42611;51.132;13.588;2023-04-08T13:04:08;37.1;31.9;
56360;PMS7003;42611;51.132;13.588;2023-04-08T13:09:07;36.6;31.6;
56360;PMS7003;42611;51.132;13.588;2023-04-08T13:14:01;38.8;32.8;
56360;PMS7003;42611;51.132;13.588;2023-04-08T13:19:01;40.0;33.8;
56360;PMS7003;42611;51.132;13.588;2023-04-08T13:24:06;39.5;33.6;
56360;PMS7003;42611;51.132;13.588;2023-04-08T13:29:03;41.9;34.8;
56360;PMS7003;42611;51.132;13.588;2023-04-08T13:34:07;41.6;33.9;
56360;PMS7003;42611;51.132;13.588;2023-04-08T13:39:02;40.5;33.4;
56360;PMS7003;42611;51.132;13.588;2023-04-08T13:44:01;40.8;33.3;
56360;PMS7003;42611;51.132;13.588;2023-04-08T13:49:06;42.9;33.9;
56360;PMS7003;42611;51.132;13.588;2023-04-08T13:54:01;42.4;33.9;
56360;PMS7003;42611;51.132;13.588;2023-04-08T13:59:07;43.3;35.1;
56360;PMS7003;42611;51.132;13.588;2023-04-08T14:04:01;42.2;33.9;
56360;PMS7003;42611;51.132;13.588;2023-04-08T14:10:01;42.5;34.0;
56360;PMS7003;42611;51.132;13.588;2023-04-08T14:15:09;40.9;33.5;
56360;PMS7003;42611;51.132;13.588;2023-04-08T14:20:06;42.4;34.4;
56360;PMS7003;42611;51.132;13.588;2023-04-08T14:25:02;42.1;34.4;
56360;PMS7003;42611;51.132;13.588;2023-04-08T14:30:07;44.4;36.3;
56360;PMS7003;42611;51.132;13.588;2023-04-08T14:35:09;43.0;35.9;
56360;PMS7003;42611;51.132;13.588;2023-04-08T14:40:01;43.8;36.4;
56360;PMS7003;42611;51.132;13.588;2023-04-08T14:45:07;40.3;34.0;
56360;PMS7003;42611;51.132;13.588;2023-04-08T14:50:06;38.0;33.0;
56360;PMS7003;42611;51.132;13.588;2023-04-08T14:55:02;34.4;30.4;
56360;PMS7003;42611;51.132;13.588;2023-04-08T15:00:07;32.7;29.2;
56360;PMS7003;42611;51.132;13.588;2023-04-08T15:05:06;28.9;26.8;
56360;PMS7003;42611;51.132;13.588;2023-04-08T15:10:06;28.4;26.2;
56360;PMS7003;42611;51.132;13.588;2023-04-08T15:15:07;27.9;25.6;
56360;PMS7003;42611;51.132;13.588;2023-04-08T15:20:07;27.6;25.5;
56360;PMS7003;42611;51.132;13.588;2023-04-08T15:25:01;27.3;25.3;
56360;PMS7003;42611;51.132;13.588;2023-04-08T15:30:03;28.8;26.5;
56360;PMS7003;42611;51.132;13.588;2023-04-08T15:35:06;28.2;26.5;
56360;PMS7003;42611;51.132;13.588;2023-04-08T15:40:06;26.9;25.5;
56360;PMS7003;42611;51.132;13.588;2023-04-08T15:45:12;28.0;26.6;
56360;PMS7003;42611;51.132;13.588;2023-04-08T15:50:01;29.2;27.5;
56360;PMS7003;42611;51.132;13.588;2023-04-08T15:55:14;28.4;27.2;
56360;PMS7003;42611;51.132;13.588;2023-04-08T16:00:09;29.2;27.4;
56360;PMS7003;42611;51.132;13.588;2023-04-08T16:05:01;30.5;28.7;
56360;PMS7003;42611;51.132;13.588;2023-04-08T16:10:02;30.4;28.7;
56360;PMS7003;42611;51.132;13.588;2023-04-08T16:15:02;30.2;28.2;
56360;PMS7003;42611;51.132;13.588;2023-04-08T16:20:03;30.8;28.3;
56360;PMS7003;42611;51.132;13.588;2023-04-08T16:25:01;30.3;27.7;
56360;PMS7003;42611;51.132;13.588;2023-04-08T16:30:02;31.7;28.5;
56360;PMS7003;42611;51.132;13.588;2023-04-08T16:35:01;33.2;28.8;
56360;PMS7003;42611;51.132;13.588;2023-04-08T16:40:01;33.6;29.4;
56360;PMS7003;42611;51.132;13.588;2023-04-08T16:45:08;34.8;29.9;
56360;PMS7003;42611;51.132;13.588;2023-04-08T16:50:02;36.6;31.6;
56360;PMS7003;42611;51.132;13.588;2023-04-08T16:56:15;35.8;31.0;
56360;PMS7003;42611;51.132;13.588;2023-04-08T17:01:06;34.9;30.8;
56360;PMS7003;42611;51.132;13.588;2023-04-08T17:06:07;33.9;29.5;
56360;PMS7003;42611;51.132;13.588;2023-04-08T17:11:05;33.0;29.3;
56360;PMS7003;42611;51.132;13.588;2023-04-08T17:16:10;31.5;28.5;
56360;PMS7003;42611;51.132;13.588;2023-04-08T17:21:01;32.2;28.7;
56360;PMS7003;42611;51.132;13.588;2023-04-08T17:26:08;31.7;28.7;
56360;PMS7003;42611;51.132;13.588;2023-04-08T17:31:06;32.8;30.2;
56360;PMS7003;42611;51.132;13.588;2023-04-08T17:36:01;34.0;31.1;
56360;PMS7003;42611;51.132;13.588;2023-04-08T17:41:02;34.8;31.2;
56360;PMS7003;42611;51.132;13.588;2023-04-08T17:51:03;35.4;31.4;
56360;PMS7003;42611;51.132;13.588;2023-04-08T17:56:01;36.1;31.2;
56360;PMS7003;42611;51.132;13.588;2023-04-08T18:01:02;33.4;29.2;
56360;PMS7003;42611;51.132;13.588;2023-04-08T18:06:05;32.9;29.0;
56360;PMS7003;42611;51.132;13.588;2023-04-08T18:11:07;31.9;28.7;
56360;PMS7003;42611;51.132;13.588;2023-04-08T18:16:15;30.4;27.5;
56360;PMS7003;42611;51.132;13.588;2023-04-08T18:21:06;28.8;26.9;
56360;PMS7003;42611;51.132;13.588;2023-04-08T18:26:01;30.4;28.5;
56360;PMS7003;42611;51.132;13.588;2023-04-08T18:31:06;30.1;28.7;
56360;PMS7003;42611;51.132;13.588;2023-04-08T18:36:10;30.9;29.1;
56360;PMS7003;42611;51.132;13.588;2023-04-08T18:41:07;31.4;29.5;
56360;PMS7003;42611;51.132;13.588;2023-04-08T18:46:02;31.8;29.5;
56360;PMS7003;42611;51.132;13.588;2023-04-08T18:51:06;30.7;28.6;
56360;PMS7003;42611;51.132;13.588;2023-04-08T18:56:01;32.6;29.5;
56360;PMS7003;42611;51.132;13.588;2023-04-08T19:01:07;33.6;29.8;
56360;PMS7003;42611;51.132;13.588;2023-04-08T19:06:12;33.1;29.7;
56360;PMS7003;42611;51.132;13.588;2023-04-08T19:11:06;33.6;30.1;
56360;PMS7003;42611;51.132;13.588;2023-04-08T19:16:01;35.8;31.6;
56360;PMS7003;42611;51.132;13.588;2023-04-08T19:21:06;36.9;32.1;
56360;PMS7003;42611;51.132;13.588;2023-04-08T19:26:03;38.1;33.5;
56360;PMS7003;42611;51.132;13.588;2023-04-08T19:31:14;38.9;33.7;
56360;PMS7003;42611;51.132;13.588;2023-04-08T19:36:01;42.0;34.9;
56360;PMS7003;42611;51.132;13.588;2023-04-08T19:46:08;41.6;34.4;
56360;PMS7003;42611;51.132;13.588;2023-04-08T19:56:06;42.1;34.5;
56360;PMS7003;42611;51.132;13.588;2023-04-08T20:01:02;37.0;31.7;
56360;PMS7003;42611;51.132;13.588;2023-04-08T20:06:01;37.4;32.3;
56360;PMS7003;42611;51.132;13.588;2023-04-08T20:11:07;38.1;32.6;
56360;PMS7003;42611;51.132;13.588;2023-04-08T20:16:01;36.6;32.0;
56360;PMS7003;42611;51.132;13.588;2023-04-08T20:21:06;39.0;33.7;
56360;PMS7003;42611;51.132;13.588;2023-04-08T20:26:01;42.5;36.4;
56360;PMS7003;42611;51.132;13.588;2023-04-08T20:31:02;44.2;36.8;
56360;PMS7003;42611;51.132;13.588;2023-04-08T20:36:02;44.6;36.8;
56360;PMS7003;42611;51.132;13.588;2023-04-08T20:41:02;46.2;37.7;
56360;PMS7003;42611;51.132;13.588;2023-04-08T20:46:07;46.0;37.6;
56360;PMS7003;42611;51.132;13.588;2023-04-08T20:51:02;47.8;38.8;
56360;PMS7003;42611;51.132;13.588;2023-04-08T20:56:06;48.2;39.3;
56360;PMS7003;42611;51.132;13.588;2023-04-08T21:01:07;48.0;39.8;
56360;PMS7003;42611;51.132;13.588;2023-04-08T21:06:02;48.3;39.5;
56360;PMS7003;42611;51.132;13.588;2023-04-08T21:12:01;51.2;41.4;
56360;PMS7003;42611;51.132;13.588;2023-04-08T21:17:03;54.8;43.5;
56360;PMS7003;42611;51.132;13.588;2023-04-08T21:22:07;55.3;44.0;
56360;PMS7003;42611;51.132;13.588;2023-04-08T21:27:06;54.9;43.7;
56360;PMS7003;42611;51.132;13.588;2023-04-08T21:32:01;55.5;43.7;
56360;PMS7003;42611;51.132;13.588;2023-04-08T21:37:06;53.2;42.1;
56360;PMS7003;42611;51.132;13.588;2023-04-08T21:42:06;51.4;40.8;
56360;PMS7003;42611;51.132;13.588;2023-04-08T21:47:06;50.8;39.9;
56360;PMS7003;42611;51.132;13.588;2023-04-08T21:52:06;51.3;39.8;
56360;PMS7003;42611;51.132;13.588;2023-04-08T21:57:06;49.8;39.6;
56360;PMS7003;42611;51.132;13.588;2023-04-08T22:02:12;48.4;38.9;
56360;PMS7003;42611;51.132;13.588;2023-04-08T22:07:16;44.6;37.1;
56360;PMS7003;42611;51.132;13.588;2023-04-08T22:12:01;44.0;36.4;
56360;PMS7003;42611;51.132;13.588;2023-04-08T22:17:01;43.1;36.3;
56360;PMS7003;42611;51.132;13.588;2023-04-08T22:22:02;44.6;36.6;
56360;PMS7003;42611;51.132;13.588;2023-04-08T22:27:02;46.4;37.1;
56360;PMS7003;42611;51.132;13.588;2023-04-08T22:32:11;59.2;47.4;
56360;PMS7003;42611;51.132;13.588;2023-04-08T22:37:08;63.2;50.9;
56360;PMS7003;42611;51.132;13.588;2023-04-08T22:42:07;67.9;54.3;
56360;PMS7003;42611;51.132;13.588;2023-04-08T22:47:01;69.7;55.7;
56360;PMS7003;42611;51.132;13.588;2023-04-08T22:53:01;69.9;56.8;
56360;PMS7003;42611;51.132;13.588;2023-04-08T22:58:01;60.1;48.2;
56360;PMS7003;42611;51.132;13.588;2023-04-08T23:03:06;57.3;46.2;
56360;PMS7003;42611;51.132;13.588;2023-04-08T23:08:02;55.2;44.6;
56360;PMS7003;42611;51.132;13.588;2023-04-08T23:13:13;53.0;43.5;
56360;PMS7003;42611;51.132;13.588;2023-04-08T23:18:08;53.6;43.3;
56360;PMS7003;42611;51.132;13.588;2023-04-08T23:23:07;53.4;42.8;
56360;PMS7003;42611;51.132;13.588;2023-04-08T23:28:04;54.4;43.3;
56360;PMS7003;42611;51.132;13.588;2023-04-08T23:33:02;51.3;40.4;
56360;PMS7003;42611;51.132;13.588;2023-04-08T23:38:10;53.1;41.3;
56360;PMS7003;42611;51.132;13.588;2023-04-08T23:43:03;51.8;40.3;
56360;PMS7003;42611;51.132;13.588;2023-04-08T23:48:12;51.2;40.2;
56360;PMS7003;42611;51.132;13.588;2023-04-08T23:53:06;50.6;40.2;
56360;PMS7003;42611;51.132;13.588;2023-04-08T23:58:02;60.0;48.8;
